sensor_id;sensor_type;location;lat;lon;timestamp;P1;durP1;ratioP1;P2;durP2;ratioP2
26824;SDS011;14402;48.178;11.566;2023-07-20T00:00:00;4.2;;;2.2;;
26824;SDS011;14402;48.178;11.566;2023-07-20T00:00:30;4.2;;;2.2;;
26824;SDS011;14402;48.178;11.566;2023-07-20T00:01:00;4.2;;;2.2;;
26824;SDS011;14402;48.178;11.566;2023-07-20T00:01:30;3.8;;;2.2;;
26824;SDS011;14402;48.178;11.566;2023-07-20T00:02:00;3.4;;;2.2;;
26824;SDS011;14402;48.178;11.566;2023-07-20T00:02:30;3.4;;;2.2;;
26824;SDS011;14402;48.178;11.566;2023-07-20T00:03:16;3.4;;;2.2;;
26824;SDS011;14402;48.178;11.566;2023-07-20T00:03:30;3.5;;;2.0;;
26824;SDS011;14402;48.178;11.566;2023-07-20T00:04:00;3.5;;;1.9;;
26824;SDS011;14402;48.178;11.566;2023-07-20T00:04:30;3.5;;;1.9;;
26824;SDS011;14402;48.178;11.566;2023-07-20T00:05:00;3.5;;;1.9;;
26824;SDS011;14402;48.178;11.566;2023-07-20T00:05:30;3.7;;;2.0;;
26824;SDS011;14402;48.178;11.566;2023-07-20T00:06:01;3.9;;;2.1;;
26824;SDS011;14402;48.178;11.566;2023-07-20T00:06:31;3.9;;;2.1;;
26824;SDS011;14402;48.178;11.566;2023-07-20T00:07:01;3.9;;;2.1;;
26824;SDS011;14402;48.178;11.566;2023-07-20T00:07:31;4.2;;;2.1;;
26824;SDS011;14402;48.178;11.566;2023-07-20T00:08:01;4.6;;;2.1;;
26824;SDS011;14402;48.178;11.566;2023-07-20T00:08:31;4.6;;;2.1;;
26824;SDS011;14402;48.178;11.566;2023-07-20T00:09:01;4.6;;;2.1;;
26824;SDS011;14402;48.178;11.566;2023-07-20T00:09:31;4.1;;;2.0;;
26824;SDS011;14402;48.178;11.566;2023-07-20T00:10:01;3.6;;;1.9;;
26824;SDS011;14402;48.178;11.566;2023-07-20T00:10:31;3.6;;;1.9;;
26824;SDS011;14402;48.178;11.566;2023-07-20T00:11:02;3.6;;;1.9;;
26824;SDS011;14402;48.178;11.566;2023-07-20T00:11:35;3.4;;;2.0;;
26824;SDS011;14402;48.178;11.566;2023-07-20T00:12:02;3.3;;;2.1;;
26824;SDS011;14402;48.178;11.566;2023-07-20T00:12:32;3.3;;;2.1;;
26824;SDS011;14402;48.178;11.566;2023-07-20T00:13:02;3.3;;;2.1;;
26824;SDS011;14402;48.178;11.566;2023-07-20T00:13:32;3.6;;;1.9;;
26824;SDS011;14402;48.178;11.566;2023-07-20T00:14:02;3.9;;;1.8;;
26824;SDS011;14402;48.178;11.566;2023-07-20T00:14:32;3.9;;;1.8;;
26824;SDS011;14402;48.178;11.566;2023-07-20T00:15:02;3.9;;;1.8;;
26824;SDS011;14402;48.178;11.566;2023-07-20T00:15:32;4.5;;;1.8;;
26824;SDS011;14402;48.178;11.566;2023-07-20T00:16:03;5.1;;;1.9;;
26824;SDS011;14402;48.178;11.566;2023-07-20T00:16:33;5.1;;;1.9;;
26824;SDS011;14402;48.178;11.566;2023-07-20T00:17:03;5.1;;;1.9;;
26824;SDS011;14402;48.178;11.566;2023-07-20T00:17:34;3.9;;;1.8;;
26824;SDS011;14402;48.178;11.566;2023-07-20T00:18:03;2.8;;;1.7;;
26824;SDS011;14402;48.178;11.566;2023-07-20T00:18:33;2.8;;;1.7;;
26824;SDS011;14402;48.178;11.566;2023-07-20T00:19:03;2.8;;;1.7;;
26824;SDS011;14402;48.178;11.566;2023-07-20T00:19:33;3.8;;;1.6;;
26824;SDS011;14402;48.178;11.566;2023-07-20T00:20:03;4.8;;;1.5;;
26824;SDS011;14402;48.178;11.566;2023-07-20T00:20:33;4.8;;;1.5;;
26824;SDS011;14402;48.178;11.566;2023-07-20T00:21:03;4.8;;;1.5;;
26824;SDS011;14402;48.178;11.566;2023-07-20T00:21:33;4.7;;;1.8;;
26824;SDS011;14402;48.178;11.566;2023-07-20T00:22:04;4.5;;;2.0;;
26824;SDS011;14402;48.178;11.566;2023-07-20T00:22:34;4.5;;;2.0;;
26824;SDS011;14402;48.178;11.566;2023-07-20T00:23:04;4.5;;;2.0;;
26824;SDS011;14402;48.178;11.566;2023-07-20T00:23:34;4.2;;;1.8;;
26824;SDS011;14402;48.178;11.566;2023-07-20T00:24:04;3.9;;;1.6;;
26824;SDS011;14402;48.178;11.566;2023-07-20T00:24:34;3.9;;;1.6;;
26824;SDS011;14402;48.178;11.566;2023-07-20T00:25:04;3.9;;;1.6;;
26824;SDS011;14402;48.178;11.566;2023-07-20T00:25:34;3.3;;;1.7;;
26824;SDS011;14402;48.178;11.566;2023-07-20T00:26:04;2.8;;;1.7;;
26824;SDS011;14402;48.178;11.566;2023-07-20T00:26:34;2.8;;;1.7;;
26824;SDS011;14402;48.178;11.566;2023-07-20T00:27:05;2.8;;;1.7;;
26824;SDS011;14402;48.178;11.566;2023-07-20T00:27:34;3.4;;;1.8;;
26824;SDS011;14402;48.178;11.566;2023-07-20T00:28:05;4.0;;;1.9;;
26824;SDS011;14402;48.178;11.566;2023-07-20T00:28:35;4.0;;;1.9;;
26824;SDS011;14402;48.178;11.566;2023-07-20T00:29:05;4.0;;;1.9;;
26824;SDS011;14402;48.178;11.566;2023-07-20T00:29:35;4.8;;;1.9;;
26824;SDS011;14402;48.178;11.566;2023-07-20T00:30:05;5.6;;;1.9;;
26824;SDS011;14402;48.178;11.566;2023-07-20T00:30:35;5.6;;;1.9;;
26824;SDS011;14402;48.178;11.566;2023-07-20T00:31:05;5.6;;;1.9;;
26824;SDS011;14402;48.178;11.566;2023-07-20T00:31:35;4.9;;;1.8;;
26824;SDS011;14402;48.178;11.566;2023-07-20T00:32:06;4.3;;;1.7;;
26824;SDS011;14402;48.178;11.566;2023-07-20T00:32:36;4.3;;;1.7;;
26824;SDS011;14402;48.178;11.566;2023-07-20T00:33:06;4.3;;;1.7;;
26824;SDS011;14402;48.178;11.566;2023-07-20T00:33:36;4.1;;;1.7;;
26824;SDS011;14402;48.178;11.566;2023-07-20T00:34:06;3.8;;;1.6;;
26824;SDS011;14402;48.178;11.566;2023-07-20T00:34:36;3.8;;;1.6;;
26824;SDS011;14402;48.178;11.566;2023-07-20T00:35:06;3.8;;;1.6;;
26824;SDS011;14402;48.178;11.566;2023-07-20T00:35:36;4.3;;;1.8;;
26824;SDS011;14402;48.178;11.566;2023-07-20T00:36:06;4.9;;;1.9;;
26824;SDS011;14402;48.178;11.566;2023-07-20T00:36:36;4.9;;;1.9;;
26824;SDS011;14402;48.178;11.566;2023-07-20T00:37:06;4.9;;;1.9;;
26824;SDS011;14402;48.178;11.566;2023-07-20T00:37:36;4.7;;;1.8;;
26824;SDS011;14402;48.178;11.566;2023-07-20T00:38:06;4.4;;;1.7;;
26824;SDS011;14402;48.178;11.566;2023-07-20T00:38:37;4.4;;;1.7;;
26824;SDS011;14402;48.178;11.566;2023-07-20T00:39:07;4.4;;;1.7;;
26824;SDS011;14402;48.178;11.566;2023-07-20T00:39:37;4.4;;;1.7;;
26824;SDS011;14402;48.178;11.566;2023-07-20T00:40:07;4.3;;;1.7;;
26824;SDS011;14402;48.178;11.566;2023-07-20T00:40:37;4.3;;;1.7;;
26824;SDS011;14402;48.178;11.566;2023-07-20T00:41:07;4.3;;;1.7;;
26824;SDS011;14402;48.178;11.566;2023-07-20T00:41:37;4.1;;;1.7;;
26824;SDS011;14402;48.178;11.566;2023-07-20T00:42:07;3.9;;;1.7;;
26824;SDS011;14402;48.178;11.566;2023-07-20T00:42:37;3.9;;;1.7;;
26824;SDS011;14402;48.178;11.566;2023-07-20T00:43:08;3.9;;;1.7;;
26824;SDS011;14402;48.178;11.566;2023-07-20T00:43:37;6.0;;;1.9;;
26824;SDS011;14402;48.178;11.566;2023-07-20T00:44:07;8.1;;;2.1;;
26824;SDS011;14402;48.178;11.566;2023-07-20T00:44:38;8.1;;;2.1;;
26824;SDS011;14402;48.178;11.566;2023-07-20T00:45:08;8.1;;;2.1;;
26824;SDS011;14402;48.178;11.566;2023-07-20T00:45:38;6.2;;;1.9;;
26824;SDS011;14402;48.178;11.566;2023-07-20T00:46:08;4.3;;;1.8;;
26824;SDS011;14402;48.178;11.566;2023-07-20T00:46:38;4.3;;;1.8;;
26824;SDS011;14402;48.178;11.566;2023-07-20T00:47:08;4.3;;;1.8;;
26824;SDS011;14402;48.178;11.566;2023-07-20T00:47:38;3.8;;;1.6;;
26824;SDS011;14402;48.178;11.566;2023-07-20T00:48:08;3.3;;;1.5;;
26824;SDS011;14402;48.178;11.566;2023-07-20T00:48:38;3.3;;;1.5;;
26824;SDS011;14402;48.178;11.566;2023-07-20T00:49:08;3.3;;;1.5;;
26824;SDS011;14402;48.178;11.566;2023-07-20T00:49:38;3.5;;;1.7;;
26824;SDS011;14402;48.178;11.566;2023-07-20T00:50:09;3.8;;;1.9;;
26824;SDS011;14402;48.178;11.566;2023-07-20T00:50:39;3.8;;;1.9;;
26824;SDS011;14402;48.178;11.566;2023-07-20T00:51:09;3.8;;;1.9;;
26824;SDS011;14402;48.178;11.566;2023-07-20T00:51:39;3.8;;;1.7;;
26824;SDS011;14402;48.178;11.566;2023-07-20T00:52:10;3.8;;;1.5;;
26824;SDS011;14402;48.178;11.566;2023-07-20T00:52:39;3.8;;;1.5;;
26824;SDS011;14402;48.178;11.566;2023-07-20T00:53:09;3.8;;;1.5;;
26824;SDS011;14402;48.178;11.566;2023-07-20T00:53:39;3.5;;;1.6;;
26824;SDS011;14402;48.178;11.566;2023-07-20T00:54:09;3.2;;;1.8;;
26824;SDS011;14402;48.178;11.566;2023-07-20T00:54:39;3.2;;;1.8;;
26824;SDS011;14402;48.178;11.566;2023-07-20T00:55:10;3.2;;;1.8;;
26824;SDS011;14402;48.178;11.566;2023-07-20T00:55:39;3.1;;;1.8;;
26824;SDS011;14402;48.178;11.566;2023-07-20T00:56:10;2.9;;;1.8;;
26824;SDS011;14402;48.178;11.566;2023-07-20T00:56:40;2.9;;;1.8;;
26824;SDS011;14402;48.178;11.566;2023-07-20T00:57:10;2.9;;;1.8;;
26824;SDS011;14402;48.178;11.566;2023-07-20T00:57:40;2.8;;;1.6;;
26824;SDS011;14402;48.178;11.566;2023-07-20T00:58:10;2.8;;;1.5;;
26824;SDS011;14402;48.178;11.566;2023-07-20T00:58:40;2.8;;;1.5;;
26824;SDS011;14402;48.178;11.566;2023-07-20T00:59:11;2.8;;;1.5;;
26824;SDS011;14402;48.178;11.566;2023-07-20T00:59:40;2.8;;;1.5;;
26824;SDS011;14402;48.178;11.566;2023-07-20T01:00:11;2.7;;;1.5;;
26824;SDS011;14402;48.178;11.566;2023-07-20T01:00:40;2.7;;;1.5;;
26824;SDS011;14402;48.178;11.566;2023-07-20T01:01:11;2.7;;;1.5;;
26824;SDS011;14402;48.178;11.566;2023-07-20T01:01:41;4.2;;;1.6;;
26824;SDS011;14402;48.178;11.566;2023-07-20T01:02:11;5.8;;;1.8;;
26824;SDS011;14402;48.178;11.566;2023-07-20T01:02:41;5.8;;;1.8;;
26824;SDS011;14402;48.178;11.566;2023-07-20T01:03:11;5.8;;;1.8;;
26824;SDS011;14402;48.178;11.566;2023-07-20T01:03:41;5.2;;;1.8;;
26824;SDS011;14402;48.178;11.566;2023-07-20T01:04:11;4.5;;;1.8;;
26824;SDS011;14402;48.178;11.566;2023-07-20T01:04:41;4.5;;;1.8;;
26824;SDS011;14402;48.178;11.566;2023-07-20T01:05:12;4.5;;;1.8;;
26824;SDS011;14402;48.178;11.566;2023-07-20T01:05:42;5.2;;;1.8;;
26824;SDS011;14402;48.178;11.566;2023-07-20T01:06:14;6.0;;;1.7;;
26824;SDS011;14402;48.178;11.566;2023-07-20T01:06:44;6.0;;;1.7;;
26824;SDS011;14402;48.178;11.566;2023-07-20T01:07:12;6.0;;;1.7;;
26824;SDS011;14402;48.178;11.566;2023-07-20T01:07:43;4.6;;;1.8;;
26824;SDS011;14402;48.178;11.566;2023-07-20T01:08:14;3.1;;;1.8;;
26824;SDS011;14402;48.178;11.566;2023-07-20T01:08:43;3.1;;;1.8;;
26824;SDS011;14402;48.178;11.566;2023-07-20T01:09:13;3.1;;;1.8;;
26824;SDS011;14402;48.178;11.566;2023-07-20T01:09:44;4.3;;;1.9;;
26824;SDS011;14402;48.178;11.566;2023-07-20T01:10:14;5.5;;;2.0;;
26824;SDS011;14402;48.178;11.566;2023-07-20T01:10:43;5.5;;;2.0;;
26824;SDS011;14402;48.178;11.566;2023-07-20T01:11:13;5.5;;;2.0;;
26824;SDS011;14402;48.178;11.566;2023-07-20T01:11:43;5.5;;;2.0;;
26824;SDS011;14402;48.178;11.566;2023-07-20T01:12:14;5.5;;;2.0;;
26824;SDS011;14402;48.178;11.566;2023-07-20T01:12:43;5.5;;;2.0;;
26824;SDS011;14402;48.178;11.566;2023-07-20T01:13:13;5.5;;;2.0;;
26824;SDS011;14402;48.178;11.566;2023-07-20T01:13:43;5.1;;;1.9;;
26824;SDS011;14402;48.178;11.566;2023-07-20T01:14:13;4.6;;;1.8;;
26824;SDS011;14402;48.178;11.566;2023-07-20T01:14:43;4.6;;;1.8;;
26824;SDS011;14402;48.178;11.566;2023-07-20T01:15:13;4.6;;;1.8;;
26824;SDS011;14402;48.178;11.566;2023-07-20T01:15:47;4.5;;;1.9;;
26824;SDS011;14402;48.178;11.566;2023-07-20T01:16:13;4.4;;;2.0;;
26824;SDS011;14402;48.178;11.566;2023-07-20T01:16:43;4.4;;;2.0;;
26824;SDS011;14402;48.178;11.566;2023-07-20T01:17:15;4.4;;;2.0;;
26824;SDS011;14402;48.178;11.566;2023-07-20T01:17:43;4.0;;;1.9;;
26824;SDS011;14402;48.178;11.566;2023-07-20T01:18:14;3.5;;;1.8;;
26824;SDS011;14402;48.178;11.566;2023-07-20T01:18:44;3.5;;;1.8;;
26824;SDS011;14402;48.178;11.566;2023-07-20T01:19:14;3.5;;;1.8;;
26824;SDS011;14402;48.178;11.566;2023-07-20T01:19:44;4.8;;;1.9;;
26824;SDS011;14402;48.178;11.566;2023-07-20T01:20:15;6.0;;;2.1;;
26824;SDS011;14402;48.178;11.566;2023-07-20T01:20:44;6.0;;;2.1;;
26824;SDS011;14402;48.178;11.566;2023-07-20T01:21:17;6.0;;;2.1;;
26824;SDS011;14402;48.178;11.566;2023-07-20T01:21:45;4.3;;;1.8;;
26824;SDS011;14402;48.178;11.566;2023-07-20T01:22:18;2.6;;;1.5;;
26824;SDS011;14402;48.178;11.566;2023-07-20T01:22:47;2.6;;;1.5;;
26824;SDS011;14402;48.178;11.566;2023-07-20T01:23:22;2.6;;;1.5;;
26824;SDS011;14402;48.178;11.566;2023-07-20T01:23:50;3.0;;;1.6;;
26824;SDS011;14402;48.178;11.566;2023-07-20T01:24:25;3.5;;;1.7;;
26824;SDS011;14402;48.178;11.566;2023-07-20T01:24:50;3.5;;;1.7;;
26824;SDS011;14402;48.178;11.566;2023-07-20T01:25:20;3.5;;;1.7;;
26824;SDS011;14402;48.178;11.566;2023-07-20T01:25:52;3.5;;;1.8;;
26824;SDS011;14402;48.178;11.566;2023-07-20T01:26:21;3.6;;;1.9;;
26824;SDS011;14402;48.178;11.566;2023-07-20T01:26:52;3.6;;;1.9;;
26824;SDS011;14402;48.178;11.566;2023-07-20T01:27:21;3.6;;;1.9;;
26824;SDS011;14402;48.178;11.566;2023-07-20T01:27:51;3.8;;;1.8;;
26824;SDS011;14402;48.178;11.566;2023-07-20T01:28:29;3.9;;;1.8;;
26824;SDS011;14402;48.178;11.566;2023-07-20T01:28:49;3.9;;;1.8;;
26824;SDS011;14402;48.178;11.566;2023-07-20T01:29:28;3.9;;;1.8;;
26824;SDS011;14402;48.178;11.566;2023-07-20T01:30:24;3.9;;;1.7;;
26824;SDS011;14402;48.178;11.566;2023-07-20T01:30:28;3.9;;;1.6;;
26824;SDS011;14402;48.178;11.566;2023-07-20T01:30:50;3.9;;;1.6;;
26824;SDS011;14402;48.178;11.566;2023-07-20T01:31:17;3.9;;;1.6;;
26824;SDS011;14402;48.178;11.566;2023-07-20T01:31:46;4.2;;;1.7;;
26824;SDS011;14402;48.178;11.566;2023-07-20T01:32:16;4.4;;;1.7;;
26824;SDS011;14402;48.178;11.566;2023-07-20T01:32:46;4.4;;;1.7;;
26824;SDS011;14402;48.178;11.566;2023-07-20T01:33:17;4.4;;;1.7;;
26824;SDS011;14402;48.178;11.566;2023-07-20T01:33:46;3.7;;;1.6;;
26824;SDS011;14402;48.178;11.566;2023-07-20T01:34:17;2.9;;;1.5;;
26824;SDS011;14402;48.178;11.566;2023-07-20T01:34:47;2.9;;;1.5;;
26824;SDS011;14402;48.178;11.566;2023-07-20T01:35:17;2.9;;;1.5;;
26824;SDS011;14402;48.178;11.566;2023-07-20T01:35:50;3.7;;;1.6;;
26824;SDS011;14402;48.178;11.566;2023-07-20T01:36:17;4.5;;;1.7;;
26824;SDS011;14402;48.178;11.566;2023-07-20T01:36:47;4.5;;;1.7;;
26824;SDS011;14402;48.178;11.566;2023-07-20T01:37:17;4.5;;;1.7;;
26824;SDS011;14402;48.178;11.566;2023-07-20T01:37:47;3.5;;;1.7;;
26824;SDS011;14402;48.178;11.566;2023-07-20T01:38:17;2.6;;;1.6;;
26824;SDS011;14402;48.178;11.566;2023-07-20T01:38:47;2.6;;;1.6;;
26824;SDS011;14402;48.178;11.566;2023-07-20T01:39:17;2.6;;;1.6;;
26824;SDS011;14402;48.178;11.566;2023-07-20T01:39:47;2.8;;;1.5;;
26824;SDS011;14402;48.178;11.566;2023-07-20T01:40:18;3.1;;;1.4;;
26824;SDS011;14402;48.178;11.566;2023-07-20T01:40:48;3.1;;;1.4;;
26824;SDS011;14402;48.178;11.566;2023-07-20T01:41:18;3.1;;;1.4;;
26824;SDS011;14402;48.178;11.566;2023-07-20T01:41:48;3.8;;;1.4;;
26824;SDS011;14402;48.178;11.566;2023-07-20T01:42:18;4.4;;;1.4;;
26824;SDS011;14402;48.178;11.566;2023-07-20T01:42:48;4.4;;;1.4;;
26824;SDS011;14402;48.178;11.566;2023-07-20T01:43:18;4.4;;;1.4;;
26824;SDS011;14402;48.178;11.566;2023-07-20T01:43:48;4.7;;;1.4;;
26824;SDS011;14402;48.178;11.566;2023-07-20T01:44:18;5.0;;;1.4;;
26824;SDS011;14402;48.178;11.566;2023-07-20T01:44:50;5.0;;;1.4;;
26824;SDS011;14402;48.178;11.566;2023-07-20T01:45:19;5.0;;;1.4;;
26824;SDS011;14402;48.178;11.566;2023-07-20T01:45:48;3.7;;;1.3;;
26824;SDS011;14402;48.178;11.566;2023-07-20T01:46:19;2.4;;;1.3;;
26824;SDS011;14402;48.178;11.566;2023-07-20T01:46:49;2.4;;;1.3;;
26824;SDS011;14402;48.178;11.566;2023-07-20T01:47:19;2.4;;;1.3;;
26824;SDS011;14402;48.178;11.566;2023-07-20T01:47:49;3.1;;;1.4;;
26824;SDS011;14402;48.178;11.566;2023-07-20T01:48:19;3.8;;;1.5;;
26824;SDS011;14402;48.178;11.566;2023-07-20T01:48:49;3.8;;;1.5;;
26824;SDS011;14402;48.178;11.566;2023-07-20T01:49:19;3.8;;;1.5;;
26824;SDS011;14402;48.178;11.566;2023-07-20T01:49:49;3.0;;;1.4;;
26824;SDS011;14402;48.178;11.566;2023-07-20T01:50:19;2.3;;;1.3;;
26824;SDS011;14402;48.178;11.566;2023-07-20T01:50:49;2.3;;;1.3;;
26824;SDS011;14402;48.178;11.566;2023-07-20T01:51:20;2.3;;;1.3;;
26824;SDS011;14402;48.178;11.566;2023-07-20T01:51:50;2.5;;;1.3;;
26824;SDS011;14402;48.178;11.566;2023-07-20T01:52:20;2.7;;;1.3;;
26824;SDS011;14402;48.178;11.566;2023-07-20T01:52:50;2.7;;;1.3;;
26824;SDS011;14402;48.178;11.566;2023-07-20T01:53:20;2.7;;;1.3;;
26824;SDS011;14402;48.178;11.566;2023-07-20T01:53:50;3.2;;;1.3;;
26824;SDS011;14402;48.178;11.566;2023-07-20T01:54:20;3.8;;;1.3;;
26824;SDS011;14402;48.178;11.566;2023-07-20T01:54:50;3.8;;;1.3;;
26824;SDS011;14402;48.178;11.566;2023-07-20T01:55:20;3.8;;;1.3;;
26824;SDS011;14402;48.178;11.566;2023-07-20T01:55:52;4.2;;;1.4;;
26824;SDS011;14402;48.178;11.566;2023-07-20T01:56:20;4.5;;;1.5;;
26824;SDS011;14402;48.178;11.566;2023-07-20T01:56:50;4.5;;;1.5;;
26824;SDS011;14402;48.178;11.566;2023-07-20T01:57:21;4.5;;;1.5;;
26824;SDS011;14402;48.178;11.566;2023-07-20T01:57:51;4.7;;;1.5;;
26824;SDS011;14402;48.178;11.566;2023-07-20T01:58:21;4.8;;;1.6;;
26824;SDS011;14402;48.178;11.566;2023-07-20T01:58:51;4.8;;;1.6;;
26824;SDS011;14402;48.178;11.566;2023-07-20T01:59:21;4.8;;;1.6;;
26824;SDS011;14402;48.178;11.566;2023-07-20T01:59:51;3.7;;;1.4;;
26824;SDS011;14402;48.178;11.566;2023-07-20T02:00:21;2.5;;;1.2;;
26824;SDS011;14402;48.178;11.566;2023-07-20T02:00:51;2.5;;;1.2;;
26824;SDS011;14402;48.178;11.566;2023-07-20T02:01:21;2.5;;;1.2;;
26824;SDS011;14402;48.178;11.566;2023-07-20T02:01:52;2.3;;;1.2;;
26824;SDS011;14402;48.178;11.566;2023-07-20T02:02:23;2.2;;;1.3;;
26824;SDS011;14402;48.178;11.566;2023-07-20T02:02:52;2.2;;;1.3;;
26824;SDS011;14402;48.178;11.566;2023-07-20T02:03:22;2.2;;;1.3;;
26824;SDS011;14402;48.178;11.566;2023-07-20T02:03:52;2.1;;;1.2;;
26824;SDS011;14402;48.178;11.566;2023-07-20T02:04:22;2.0;;;1.2;;
26824;SDS011;14402;48.178;11.566;2023-07-20T02:04:52;2.0;;;1.2;;
26824;SDS011;14402;48.178;11.566;2023-07-20T02:05:22;2.0;;;1.2;;
26824;SDS011;14402;48.178;11.566;2023-07-20T02:05:52;2.0;;;1.3;;
26824;SDS011;14402;48.178;11.566;2023-07-20T02:06:22;2.0;;;1.4;;
26824;SDS011;14402;48.178;11.566;2023-07-20T02:06:52;2.0;;;1.4;;
26824;SDS011;14402;48.178;11.566;2023-07-20T02:07:22;2.0;;;1.4;;
26824;SDS011;14402;48.178;11.566;2023-07-20T02:07:52;3.0;;;1.5;;
26824;SDS011;14402;48.178;11.566;2023-07-20T02:08:23;4.0;;;1.6;;
26824;SDS011;14402;48.178;11.566;2023-07-20T02:08:53;4.0;;;1.6;;
26824;SDS011;14402;48.178;11.566;2023-07-20T02:09:23;4.0;;;1.6;;
26824;SDS011;14402;48.178;11.566;2023-07-20T02:09:53;2.8;;;1.4;;
26824;SDS011;14402;48.178;11.566;2023-07-20T02:10:23;1.7;;;1.2;;
26824;SDS011;14402;48.178;11.566;2023-07-20T02:10:53;1.7;;;1.2;;
26824;SDS011;14402;48.178;11.566;2023-07-20T02:11:23;1.7;;;1.2;;
26824;SDS011;14402;48.178;11.566;2023-07-20T02:11:53;2.4;;;1.3;;
26824;SDS011;14402;48.178;11.566;2023-07-20T02:12:23;3.1;;;1.4;;
26824;SDS011;14402;48.178;11.566;2023-07-20T02:12:53;3.1;;;1.4;;
26824;SDS011;14402;48.178;11.566;2023-07-20T02:13:23;3.1;;;1.4;;
26824;SDS011;14402;48.178;11.566;2023-07-20T02:13:53;3.6;;;1.5;;
26824;SDS011;14402;48.178;11.566;2023-07-20T02:14:24;4.2;;;1.6;;
26824;SDS011;14402;48.178;11.566;2023-07-20T02:14:54;4.2;;;1.6;;
26824;SDS011;14402;48.178;11.566;2023-07-20T02:15:24;4.2;;;1.6;;
26824;SDS011;14402;48.178;11.566;2023-07-20T02:15:54;3.3;;;1.5;;
26824;SDS011;14402;48.178;11.566;2023-07-20T02:16:24;2.4;;;1.5;;
26824;SDS011;14402;48.178;11.566;2023-07-20T02:16:54;2.4;;;1.5;;
26824;SDS011;14402;48.178;11.566;2023-07-20T02:17:25;2.4;;;1.5;;
26824;SDS011;14402;48.178;11.566;2023-07-20T02:17:54;2.5;;;1.5;;
26824;SDS011;14402;48.178;11.566;2023-07-20T02:18:24;2.5;;;1.4;;
26824;SDS011;14402;48.178;11.566;2023-07-20T02:18:54;2.5;;;1.4;;
26824;SDS011;14402;48.178;11.566;2023-07-20T02:19:25;2.5;;;1.4;;
26824;SDS011;14402;48.178;11.566;2023-07-20T02:19:55;3.8;;;1.4;;
26824;SDS011;14402;48.178;11.566;2023-07-20T02:20:25;5.0;;;1.4;;
26824;SDS011;14402;48.178;11.566;2023-07-20T02:20:55;5.0;;;1.4;;
26824;SDS011;14402;48.178;11.566;2023-07-20T02:21:25;5.0;;;1.4;;
26824;SDS011;14402;48.178;11.566;2023-07-20T02:21:55;3.8;;;1.3;;
26824;SDS011;14402;48.178;11.566;2023-07-20T02:22:25;2.6;;;1.2;;
26824;SDS011;14402;48.178;11.566;2023-07-20T02:22:55;2.6;;;1.2;;
26824;SDS011;14402;48.178;11.566;2023-07-20T02:23:25;2.6;;;1.2;;
26824;SDS011;14402;48.178;11.566;2023-07-20T02:23:55;3.3;;;1.4;;
26824;SDS011;14402;48.178;11.566;2023-07-20T02:24:25;4.0;;;1.5;;
26824;SDS011;14402;48.178;11.566;2023-07-20T02:24:55;4.0;;;1.5;;
26824;SDS011;14402;48.178;11.566;2023-07-20T02:25:26;4.0;;;1.5;;
26824;SDS011;14402;48.178;11.566;2023-07-20T02:25:56;4.2;;;1.6;;
26824;SDS011;14402;48.178;11.566;2023-07-20T02:26:26;4.5;;;1.7;;
26824;SDS011;14402;48.178;11.566;2023-07-20T02:26:56;4.5;;;1.7;;
26824;SDS011;14402;48.178;11.566;2023-07-20T02:27:26;4.5;;;1.7;;
26824;SDS011;14402;48.178;11.566;2023-07-20T02:27:56;3.7;;;1.5;;
26824;SDS011;14402;48.178;11.566;2023-07-20T02:28:26;2.9;;;1.4;;
26824;SDS011;14402;48.178;11.566;2023-07-20T02:28:56;2.9;;;1.4;;
26824;SDS011;14402;48.178;11.566;2023-07-20T02:29:26;2.9;;;1.4;;
26824;SDS011;14402;48.178;11.566;2023-07-20T02:29:56;3.5;;;1.5;;
26824;SDS011;14402;48.178;11.566;2023-07-20T02:30:26;4.1;;;1.7;;
26824;SDS011;14402;48.178;11.566;2023-07-20T02:30:56;4.1;;;1.7;;
26824;SDS011;14402;48.178;11.566;2023-07-20T02:31:27;4.1;;;1.7;;
26824;SDS011;14402;48.178;11.566;2023-07-20T02:31:57;4.5;;;1.6;;
26824;SDS011;14402;48.178;11.566;2023-07-20T02:32:27;4.9;;;1.5;;
26824;SDS011;14402;48.178;11.566;2023-07-20T02:32:57;4.9;;;1.5;;
26824;SDS011;14402;48.178;11.566;2023-07-20T02:33:27;4.9;;;1.5;;
26824;SDS011;14402;48.178;11.566;2023-07-20T02:33:57;3.9;;;1.4;;
26824;SDS011;14402;48.178;11.566;2023-07-20T02:34:27;2.9;;;1.3;;
26824;SDS011;14402;48.178;11.566;2023-07-20T02:34:57;2.9;;;1.3;;
26824;SDS011;14402;48.178;11.566;2023-07-20T02:35:27;2.9;;;1.3;;
26824;SDS011;14402;48.178;11.566;2023-07-20T02:35:57;3.0;;;1.3;;
26824;SDS011;14402;48.178;11.566;2023-07-20T02:36:27;3.0;;;1.3;;
26824;SDS011;14402;48.178;11.566;2023-07-20T02:36:58;3.0;;;1.3;;
26824;SDS011;14402;48.178;11.566;2023-07-20T02:37:28;3.0;;;1.3;;
26824;SDS011;14402;48.178;11.566;2023-07-20T02:37:58;3.2;;;1.3;;
26824;SDS011;14402;48.178;11.566;2023-07-20T02:38:28;3.4;;;1.4;;
26824;SDS011;14402;48.178;11.566;2023-07-20T02:38:58;3.4;;;1.4;;
26824;SDS011;14402;48.178;11.566;2023-07-20T02:39:28;3.4;;;1.4;;
26824;SDS011;14402;48.178;11.566;2023-07-20T02:39:58;3.7;;;1.4;;
26824;SDS011;14402;48.178;11.566;2023-07-20T02:40:28;4.0;;;1.4;;
26824;SDS011;14402;48.178;11.566;2023-07-20T02:40:58;4.0;;;1.4;;
26824;SDS011;14402;48.178;11.566;2023-07-20T02:41:28;4.0;;;1.4;;
26824;SDS011;14402;48.178;11.566;2023-07-20T02:41:58;4.2;;;1.4;;
26824;SDS011;14402;48.178;11.566;2023-07-20T02:42:29;4.3;;;1.4;;
26824;SDS011;14402;48.178;11.566;2023-07-20T02:42:59;4.3;;;1.4;;
26824;SDS011;14402;48.178;11.566;2023-07-20T02:43:29;4.3;;;1.4;;
26824;SDS011;14402;48.178;11.566;2023-07-20T02:43:59;4.8;;;1.4;;
26824;SDS011;14402;48.178;11.566;2023-07-20T02:44:29;5.3;;;1.4;;
26824;SDS011;14402;48.178;11.566;2023-07-20T02:44:59;5.3;;;1.4;;
26824;SDS011;14402;48.178;11.566;2023-07-20T02:45:29;5.3;;;1.4;;
26824;SDS011;14402;48.178;11.566;2023-07-20T02:45:59;4.8;;;1.3;;
26824;SDS011;14402;48.178;11.566;2023-07-20T02:46:29;4.3;;;1.2;;
26824;SDS011;14402;48.178;11.566;2023-07-20T02:46:59;4.3;;;1.2;;
26824;SDS011;14402;48.178;11.566;2023-07-20T02:47:30;4.3;;;1.2;;
26824;SDS011;14402;48.178;11.566;2023-07-20T02:47:59;4.1;;;1.2;;
26824;SDS011;14402;48.178;11.566;2023-07-20T02:48:29;3.9;;;1.3;;
26824;SDS011;14402;48.178;11.566;2023-07-20T02:49:00;3.9;;;1.3;;
26824;SDS011;14402;48.178;11.566;2023-07-20T02:49:30;3.9;;;1.3;;
26824;SDS011;14402;48.178;11.566;2023-07-20T02:50:00;4.1;;;1.3;;
26824;SDS011;14402;48.178;11.566;2023-07-20T02:50:30;4.2;;;1.4;;
26824;SDS011;14402;48.178;11.566;2023-07-20T02:51:00;4.2;;;1.4;;
26824;SDS011;14402;48.178;11.566;2023-07-20T02:51:30;4.2;;;1.4;;
26824;SDS011;14402;48.178;11.566;2023-07-20T02:52:00;4.7;;;1.4;;
26824;SDS011;14402;48.178;11.566;2023-07-20T02:52:30;5.2;;;1.4;;
26824;SDS011;14402;48.178;11.566;2023-07-20T02:53:00;5.2;;;1.4;;
26824;SDS011;14402;48.178;11.566;2023-07-20T02:53:30;5.2;;;1.4;;
26824;SDS011;14402;48.178;11.566;2023-07-20T02:54:01;3.8;;;1.5;;
26824;SDS011;14402;48.178;11.566;2023-07-20T02:54:31;2.4;;;1.5;;
26824;SDS011;14402;48.178;11.566;2023-07-20T02:55:01;2.4;;;1.5;;
26824;SDS011;14402;48.178;11.566;2023-07-20T02:55:31;2.4;;;1.5;;
26824;SDS011;14402;48.178;11.566;2023-07-20T02:56:01;3.0;;;1.4;;
26824;SDS011;14402;48.178;11.566;2023-07-20T02:56:31;3.5;;;1.3;;
26824;SDS011;14402;48.178;11.566;2023-07-20T02:57:01;3.5;;;1.3;;
26824;SDS011;14402;48.178;11.566;2023-07-20T02:57:31;3.5;;;1.3;;
26824;SDS011;14402;48.178;11.566;2023-07-20T02:58:01;3.2;;;1.3;;
26824;SDS011;14402;48.178;11.566;2023-07-20T02:58:33;2.9;;;1.4;;
26824;SDS011;14402;48.178;11.566;2023-07-20T02:59:01;2.9;;;1.4;;
26824;SDS011;14402;48.178;11.566;2023-07-20T02:59:32;2.9;;;1.4;;
26824;SDS011;14402;48.178;11.566;2023-07-20T03:00:02;2.6;;;1.4;;
26824;SDS011;14402;48.178;11.566;2023-07-20T03:00:32;2.2;;;1.4;;
26824;SDS011;14402;48.178;11.566;2023-07-20T03:01:02;2.2;;;1.4;;
26824;SDS011;14402;48.178;11.566;2023-07-20T03:01:32;2.2;;;1.4;;
26824;SDS011;14402;48.178;11.566;2023-07-20T03:02:02;3.2;;;2.3;;
26824;SDS011;14402;48.178;11.566;2023-07-20T03:02:32;4.2;;;3.3;;
26824;SDS011;14402;48.178;11.566;2023-07-20T03:03:02;4.2;;;3.3;;
26824;SDS011;14402;48.178;11.566;2023-07-20T03:03:32;4.2;;;3.3;;